createdAt,value
2018-11-03T00:01:21.975Z,7.00
2018-11-03T00:03:50.348Z,7.00
2018-11-03T00:06:18.698Z,7.00
2018-11-03T00:08:47.127Z,7.00
2018-11-03T00:11:15.433Z,7.00
2018-11-03T00:13:43.813Z,7.00
2018-11-03T00:16:12.166Z,7.00
2018-11-03T00:18:40.532Z,7.00
2018-11-03T00:21:08.897Z,7.00
2018-11-03T00:23:37.252Z,7.00
2018-11-03T00:26:05.595Z,7.00
2018-11-03T00:28:33.975Z,7.00
2018-11-03T00:31:02.306Z,7.00
2018-11-03T00:33:30.676Z,7.10
2018-11-03T00:35:59.016Z,7.00
2018-11-03T00:38:27.360Z,7.00
2018-11-03T00:40:55.700Z,7.00
2018-11-03T00:43:24.055Z,7.00
2018-11-03T00:45:52.377Z,7.00
2018-11-03T00:48:20.756Z,7.00
2018-11-03T00:50:49.088Z,7.00
2018-11-03T00:53:17.448Z,7.00
2018-11-03T00:55:45.777Z,7.00
2018-11-03T00:58:14.140Z,7.00
2018-11-03T01:00:42.482Z,6.90
2018-11-03T01:03:10.858Z,6.90
2018-11-03T01:05:39.196Z,6.90
2018-11-03T01:08:07.581Z,6.80
2018-11-03T01:10:35.921Z,6.80
2018-11-03T01:13:04.540Z,6.80
2018-11-03T01:15:32.863Z,6.80
2018-11-03T01:18:01.192Z,6.70
2018-11-03T01:20:29.548Z,6.70
2018-11-03T01:22:57.864Z,6.70
2018-11-03T01:25:26.215Z,6.70
2018-11-03T01:27:54.568Z,6.70
2018-11-03T01:30:22.932Z,6.70
2018-11-03T01:32:51.256Z,6.60
2018-11-03T01:35:19.607Z,6.60
2018-11-03T01:37:47.928Z,6.60
2018-11-03T01:40:16.292Z,6.60
2018-11-03T01:42:44.631Z,6.60
2018-11-03T01:45:13.033Z,6.60
2018-11-03T01:47:41.354Z,6.50
2018-11-03T01:50:11.424Z,6.50
2018-11-03T01:52:40.633Z,6.50
2018-11-03T01:55:09.061Z,6.50
2018-11-03T01:57:38.115Z,6.50
2018-11-03T02:00:07.320Z,6.50
2018-11-03T02:02:35.662Z,6.40
2018-11-03T02:05:04.036Z,6.50
2018-11-03T02:07:32.406Z,6.50
2018-11-03T02:10:00.736Z,6.50
2018-11-03T02:12:29.060Z,6.50
2018-11-03T02:14:57.432Z,6.40
2018-11-03T02:17:25.777Z,6.40
2018-11-03T02:19:54.132Z,6.40
2018-11-03T02:22:22.452Z,6.40
2018-11-03T02:24:50.812Z,6.40
2018-11-03T02:27:19.192Z,6.40
2018-11-03T02:29:47.569Z,6.40
2018-11-03T02:32:15.911Z,6.40
2018-11-03T02:34:44.301Z,6.40
2018-11-03T02:37:12.657Z,6.40
2018-11-03T02:39:41.053Z,6.30
2018-11-03T02:42:09.426Z,6.30
2018-11-03T02:44:37.780Z,6.30
2018-11-03T02:47:06.641Z,6.30
2018-11-03T02:49:34.956Z,6.30
2018-11-03T02:52:03.337Z,6.30
2018-11-03T02:54:31.654Z,6.30
2018-11-03T02:57:00.021Z,6.30
2018-11-03T02:59:28.345Z,6.30
2018-11-03T03:01:56.696Z,6.30
2018-11-03T03:04:25.020Z,6.30
2018-11-03T03:06:53.363Z,6.30
2018-11-03T03:09:21.684Z,6.30
2018-11-03T03:11:50.049Z,6.20
2018-11-03T03:14:18.408Z,6.20
2018-11-03T03:16:46.752Z,6.20
2018-11-03T03:19:15.068Z,6.20
2018-11-03T03:21:43.411Z,6.20
2018-11-03T03:24:11.731Z,6.20
2018-11-03T03:26:40.072Z,6.20
2018-11-03T03:29:08.602Z,6.20
2018-11-03T03:31:36.924Z,6.20
2018-11-03T03:34:05.479Z,6.20
2018-11-03T03:36:33.827Z,6.10
2018-11-03T03:39:02.140Z,6.10
2018-11-03T03:41:30.516Z,6.10
2018-11-03T03:43:58.836Z,6.10
2018-11-03T03:46:27.185Z,6.10
2018-11-03T03:48:55.501Z,6.10
2018-11-03T03:51:23.839Z,6.10
2018-11-03T03:53:52.151Z,6.10
2018-11-03T03:56:20.492Z,6.10
2018-11-03T03:58:48.808Z,6.10
2018-11-03T04:01:17.152Z,6.10
2018-11-03T04:03:45.466Z,6.10
2018-11-03T04:06:13.856Z,6.10
2018-11-03T04:08:42.231Z,6.10
2018-11-03T04:11:10.593Z,6.10
2018-11-03T04:13:38.915Z,6.10
2018-11-03T04:16:07.244Z,6.10
2018-11-03T04:18:35.564Z,6.10
2018-11-03T04:21:03.908Z,6.10
2018-11-03T04:23:32.232Z,6.10
2018-11-03T04:26:00.580Z,6.10
2018-11-03T04:28:28.889Z,6.10
2018-11-03T04:30:57.285Z,6.10
2018-11-03T04:33:25.852Z,6.10
2018-11-03T04:35:54.211Z,6.10
2018-11-03T04:38:22.547Z,6.00
2018-11-03T04:40:50.884Z,6.00
2018-11-03T04:43:19.232Z,6.00
2018-11-03T04:45:47.543Z,6.00
2018-11-03T04:48:15.888Z,6.00
2018-11-03T04:50:44.203Z,6.00
2018-11-03T04:53:12.556Z,6.00
2018-11-03T04:55:40.864Z,6.00
2018-11-03T04:58:09.212Z,6.00
2018-11-03T05:00:37.528Z,6.00
2018-11-03T05:03:06.131Z,6.00
2018-11-03T05:05:34.452Z,6.00
2018-11-03T05:08:02.802Z,6.00
2018-11-03T05:10:31.248Z,6.00
2018-11-03T05:12:59.491Z,6.00
2018-11-03T05:15:27.852Z,6.00
2018-11-03T05:17:56.172Z,6.00
2018-11-03T05:20:24.528Z,6.00
2018-11-03T05:22:52.850Z,6.00
2018-11-03T05:25:21.243Z,6.00
2018-11-03T05:27:49.596Z,6.00
2018-11-03T05:30:17.956Z,6.00
2018-11-03T05:32:46.266Z,6.00
2018-11-03T05:35:14.620Z,6.00
2018-11-03T05:37:42.951Z,5.90
2018-11-03T05:40:11.303Z,5.90
2018-11-03T05:42:39.686Z,5.90
2018-11-03T05:45:07.988Z,5.90
2018-11-03T05:47:36.399Z,5.90
2018-11-03T05:50:05.761Z,5.90
2018-11-03T05:52:34.156Z,5.90
2018-11-03T05:55:02.537Z,5.90
2018-11-03T05:57:30.861Z,5.90
2018-11-03T05:59:59.217Z,5.90
2018-11-03T06:02:27.543Z,5.90
2018-11-03T06:04:55.939Z,5.90
2018-11-03T06:07:24.589Z,5.90
2018-11-03T06:09:52.935Z,5.90
2018-11-03T06:12:21.252Z,5.90
2018-11-03T06:14:49.604Z,5.90
2018-11-03T06:17:17.912Z,5.90
2018-11-03T06:19:46.258Z,5.90
2018-11-03T06:22:14.713Z,5.90
2018-11-03T06:24:42.956Z,5.90
2018-11-03T06:27:11.308Z,5.90
2018-11-03T06:29:39.673Z,5.90
2018-11-03T06:32:08.012Z,5.90
2018-11-03T06:34:36.365Z,5.90
2018-11-03T06:37:04.876Z,5.90
2018-11-03T06:39:33.189Z,5.90
2018-11-03T06:42:02.387Z,5.90
2018-11-03T06:44:30.708Z,5.90
2018-11-03T06:46:59.056Z,5.90
2018-11-03T06:49:27.411Z,5.90
2018-11-03T06:51:55.817Z,5.90
2018-11-03T06:54:24.104Z,5.90
2018-11-03T06:56:52.468Z,5.90
2018-11-03T06:59:20.780Z,5.90
2018-11-03T07:01:49.159Z,5.90
2018-11-03T07:04:17.476Z,5.90
2018-11-03T07:06:45.828Z,5.90
2018-11-03T07:09:14.359Z,5.90
2018-11-03T07:11:42.785Z,6.00
2018-11-03T07:14:11.120Z,5.90
2018-11-03T07:16:39.468Z,6.00
2018-11-03T07:19:07.844Z,6.00
2018-11-03T07:21:36.237Z,6.00
2018-11-03T07:24:04.515Z,6.00
2018-11-03T07:26:32.856Z,6.10
2018-11-03T07:29:01.160Z,6.10
2018-11-03T07:31:29.533Z,6.10
2018-11-03T07:33:58.199Z,6.10
2018-11-03T07:36:26.556Z,6.10
2018-11-03T07:38:54.873Z,6.10
2018-11-03T07:41:23.288Z,6.10
2018-11-03T07:43:51.580Z,6.10
2018-11-03T07:46:19.958Z,6.10
2018-11-03T07:48:48.421Z,6.10
2018-11-03T07:51:16.674Z,6.10
2018-11-03T07:53:44.999Z,6.20
2018-11-03T07:56:13.357Z,6.20
2018-11-03T07:58:41.792Z,6.20
2018-11-03T08:01:10.138Z,6.20
2018-11-03T08:03:38.477Z,6.20
2018-11-03T08:06:06.848Z,6.30
2018-11-03T08:08:35.188Z,6.30
2018-11-03T08:11:03.513Z,6.40
2018-11-03T08:13:31.871Z,6.40
2018-11-03T08:16:00.192Z,6.40
2018-11-03T08:18:28.551Z,6.50
2018-11-03T08:20:56.888Z,6.50
2018-11-03T08:23:25.240Z,6.50
2018-11-03T08:25:53.556Z,6.50
2018-11-03T08:28:21.912Z,6.50
2018-11-03T08:30:50.324Z,6.50
2018-11-03T08:33:18.676Z,6.50
2018-11-03T08:35:47.031Z,6.60
2018-11-03T08:38:15.391Z,6.60
2018-11-03T08:40:43.711Z,6.60
2018-11-03T08:43:12.059Z,6.70
2018-11-03T08:45:40.368Z,6.70
2018-11-03T08:48:08.736Z,6.70
2018-11-03T08:50:37.188Z,6.70
2018-11-03T08:53:05.573Z,6.70
2018-11-03T08:55:33.895Z,6.70
2018-11-03T08:58:02.264Z,6.80
2018-11-03T09:00:30.585Z,6.80
2018-11-03T09:02:58.924Z,6.90
2018-11-03T09:05:27.287Z,7.00
2018-11-03T09:07:55.700Z,7.00
2018-11-03T09:10:24.091Z,7.10
2018-11-03T09:12:52.435Z,7.10
2018-11-03T09:15:20.793Z,7.10
2018-11-03T09:17:49.132Z,7.10
2018-11-03T09:20:17.455Z,7.10
2018-11-03T09:22:45.890Z,7.20
2018-11-03T09:25:15.401Z,7.20
2018-11-03T09:27:44.318Z,7.20
2018-11-03T09:30:15.041Z,7.30
2018-11-03T09:32:43.536Z,7.30
2018-11-03T09:35:12.908Z,7.40
2018-11-03T09:37:41.313Z,7.40
2018-11-03T09:40:11.857Z,7.40
2018-11-03T09:42:40.432Z,7.40
2018-11-03T09:45:09.915Z,7.40
2018-11-03T09:47:38.307Z,7.40
2018-11-03T09:50:07.733Z,7.40
2018-11-03T09:52:36.080Z,7.50
2018-11-03T09:55:04.672Z,7.50
2018-11-03T09:57:32.984Z,7.60
2018-11-03T10:00:01.318Z,7.60
2018-11-03T10:02:29.708Z,7.60
2018-11-03T10:04:58.052Z,7.70
2018-11-03T10:07:26.397Z,7.60
2018-11-03T10:09:54.763Z,7.70
2018-11-03T10:12:23.088Z,7.70
2018-11-03T10:14:51.435Z,7.70
2018-11-03T10:17:19.752Z,7.70
2018-11-03T10:19:48.095Z,7.80
2018-11-03T10:22:16.464Z,7.80
2018-11-03T10:24:44.804Z,7.80
2018-11-03T10:27:13.193Z,7.90
2018-11-03T10:29:41.542Z,7.90
2018-11-03T10:32:16.600Z,7.90
2018-11-03T10:34:44.947Z,7.90
2018-11-03T10:37:13.308Z,7.90
2018-11-03T10:39:41.651Z,7.90
2018-11-03T10:42:10.013Z,7.90
2018-11-03T10:44:38.344Z,8.00
2018-11-03T10:47:06.683Z,8.00
2018-11-03T10:49:35.084Z,8.00
2018-11-03T10:52:03.424Z,8.00
2018-11-03T10:54:31.788Z,8.00
2018-11-03T10:57:00.140Z,8.00
2018-11-03T10:59:28.488Z,8.00
2018-11-03T11:02:02.197Z,8.10
2018-11-03T11:04:35.863Z,8.10
2018-11-03T11:07:09.605Z,8.20
2018-11-03T11:09:43.378Z,8.30
2018-11-03T11:12:12.827Z,8.40
2018-11-03T11:14:41.168Z,8.40
2018-11-03T11:17:09.485Z,8.50
2018-11-03T11:19:37.840Z,8.50
2018-11-03T11:22:06.164Z,8.50
2018-11-03T11:24:34.538Z,8.60
2018-11-03T11:27:02.855Z,8.60
2018-11-03T11:29:31.228Z,8.60
2018-11-03T11:31:59.557Z,8.70
2018-11-03T11:34:27.900Z,8.70
2018-11-03T11:36:56.212Z,8.80
2018-11-03T11:39:24.554Z,8.80
2018-11-03T11:41:52.904Z,8.90
2018-11-03T11:44:21.350Z,8.90
2018-11-03T11:46:49.704Z,8.90
2018-11-03T11:49:18.060Z,9.10
2018-11-03T11:51:46.420Z,9.10
2018-11-03T11:54:14.767Z,9.10
2018-11-03T11:56:43.075Z,9.10
2018-11-03T11:59:11.391Z,9.20
2018-11-03T12:01:39.749Z,9.20
2018-11-03T12:04:08.375Z,9.20
2018-11-03T12:06:36.766Z,9.30
2018-11-03T12:09:06.880Z,9.40
2018-11-03T12:11:35.222Z,9.40
2018-11-03T12:14:03.847Z,9.50
2018-11-03T12:16:32.552Z,9.50
2018-11-03T12:19:00.900Z,9.50
2018-11-03T12:21:29.565Z,9.50
2018-11-03T12:23:57.887Z,9.50
2018-11-03T12:26:26.237Z,9.50
2018-11-03T12:28:54.589Z,9.60
2018-11-03T12:31:22.944Z,9.60
2018-11-03T12:33:51.284Z,9.60
2018-11-03T12:36:19.700Z,9.60
2018-11-03T12:38:48.016Z,9.70
2018-11-03T12:41:16.448Z,9.60
2018-11-03T12:43:44.691Z,9.60
2018-11-03T12:46:13.113Z,9.60
2018-11-03T12:48:41.387Z,9.50
2018-11-03T12:51:09.784Z,9.50
2018-11-03T12:53:38.105Z,9.50
2018-11-03T12:56:06.467Z,9.60
2018-11-03T12:58:34.787Z,9.60
2018-11-03T13:01:03.145Z,9.60
2018-11-03T13:03:31.476Z,9.60
2018-11-03T13:05:59.820Z,9.70
2018-11-03T13:08:28.140Z,9.70
2018-11-03T13:10:56.492Z,9.70
2018-11-03T13:13:24.803Z,9.80
2018-11-03T13:15:53.148Z,9.80
2018-11-03T13:18:21.448Z,9.90
2018-11-03T13:20:49.788Z,9.90
2018-11-03T13:23:18.111Z,9.90
2018-11-03T13:25:46.452Z,9.90
2018-11-03T13:28:14.776Z,9.90
2018-11-03T13:30:43.109Z,9.90
2018-11-03T13:33:11.420Z,9.90
2018-11-03T13:35:39.763Z,9.90
2018-11-03T13:38:08.084Z,9.90
2018-11-03T13:40:36.427Z,9.90
2018-11-03T13:43:04.932Z,9.90
2018-11-03T13:45:33.244Z,9.90
2018-11-03T13:48:01.601Z,9.90
2018-11-03T13:50:29.949Z,9.90
2018-11-03T13:52:58.299Z,9.90
2018-11-03T13:55:26.611Z,9.90
2018-11-03T13:57:54.976Z,9.90
2018-11-03T14:00:23.291Z,9.80
2018-11-03T14:02:51.639Z,9.90
2018-11-03T14:05:19.952Z,9.90
2018-11-03T14:07:48.304Z,10.00
2018-11-03T14:10:17.312Z,10.00
2018-11-03T14:12:46.524Z,10.00
2018-11-03T14:15:16.233Z,10.10
2018-11-03T14:17:44.573Z,10.00
2018-11-03T14:20:13.877Z,10.00
2018-11-03T14:22:42.908Z,10.00
2018-11-03T14:25:12.891Z,10.00
2018-11-03T14:27:42.084Z,10.00
2018-11-03T14:30:11.488Z,9.90
2018-11-03T14:32:39.816Z,9.90
2018-11-03T14:35:08.872Z,9.90
2018-11-03T14:37:37.327Z,9.90
2018-11-03T14:40:07.834Z,9.80
2018-11-03T14:42:36.177Z,9.80
2018-11-03T14:45:05.026Z,9.90
2018-11-03T14:47:33.372Z,9.80
2018-11-03T14:50:04.580Z,9.90
2018-11-03T14:52:34.932Z,9.90
2018-11-03T14:55:03.252Z,9.90
2018-11-03T14:57:31.595Z,9.90
2018-11-03T14:59:59.916Z,9.90
2018-11-03T15:02:28.256Z,9.80
2018-11-03T15:04:56.571Z,9.80
2018-11-03T15:07:24.908Z,9.80
2018-11-03T15:09:53.308Z,9.80
2018-11-03T15:12:21.645Z,9.70
2018-11-03T15:14:50.044Z,9.80
2018-11-03T15:17:18.387Z,9.80
2018-11-03T15:19:46.692Z,9.80
2018-11-03T15:22:15.037Z,9.80
2018-11-03T15:24:43.339Z,9.70
2018-11-03T15:27:11.653Z,9.70
2018-11-03T15:29:40.004Z,9.70
2018-11-03T15:32:08.343Z,9.70
2018-11-03T15:34:36.689Z,9.70
2018-11-03T15:37:05.082Z,9.60
2018-11-03T15:39:33.412Z,9.60
2018-11-03T15:42:01.725Z,9.60
2018-11-03T15:44:30.112Z,9.50
2018-11-03T15:46:58.415Z,9.50
2018-11-03T15:49:26.768Z,9.50
2018-11-03T15:51:55.080Z,9.50
2018-11-03T15:54:23.431Z,9.50
2018-11-03T15:56:51.771Z,9.40
2018-11-03T15:59:20.115Z,9.40
2018-11-03T16:01:48.428Z,9.40
2018-11-03T16:04:16.776Z,9.40
2018-11-03T16:06:45.080Z,9.40
2018-11-03T16:09:13.692Z,9.40
2018-11-03T16:11:42.244Z,9.40
2018-11-03T16:14:10.652Z,9.30
2018-11-03T16:16:39.315Z,9.40
2018-11-03T16:19:08.232Z,9.30
2018-11-03T16:21:36.669Z,9.30
2018-11-03T16:24:05.048Z,9.30
2018-11-03T16:26:35.875Z,9.30
2018-11-03T16:29:04.235Z,9.30
2018-11-03T16:31:32.548Z,9.30
2018-11-03T16:34:00.900Z,9.30
2018-11-03T16:36:29.220Z,9.30
2018-11-03T16:38:57.567Z,9.30
2018-11-03T16:41:25.880Z,9.30
2018-11-03T16:43:54.240Z,9.30
2018-11-03T16:46:22.564Z,9.30
2018-11-03T16:51:25.566Z,9.30
2018-11-03T16:53:53.912Z,9.30
2018-11-03T16:56:22.226Z,9.20
2018-11-03T16:58:50.587Z,9.20
2018-11-03T17:01:18.927Z,9.20
2018-11-03T17:03:47.284Z,9.20
2018-11-03T17:06:15.592Z,9.20
2018-11-03T17:08:43.920Z,9.20
2018-11-03T17:11:12.272Z,9.30
2018-11-03T17:13:40.715Z,9.20
2018-11-03T17:16:09.092Z,9.30
2018-11-03T17:18:37.430Z,9.20
2018-11-03T17:21:05.800Z,9.20
2018-11-03T17:23:34.125Z,9.20
2018-11-03T17:26:02.492Z,9.20
2018-11-03T17:28:30.854Z,9.20
2018-11-03T17:30:59.226Z,9.20
2018-11-03T17:33:27.556Z,9.20
2018-11-03T17:35:55.903Z,9.20
2018-11-03T17:38:24.251Z,9.20
2018-11-03T17:40:52.600Z,9.20
2018-11-03T17:43:21.180Z,9.20
2018-11-03T17:45:49.524Z,9.20
2018-11-03T17:48:17.852Z,9.20
2018-11-03T17:50:46.214Z,9.20
2018-11-03T17:53:14.544Z,9.20
2018-11-03T17:55:42.892Z,9.20
2018-11-03T17:58:11.241Z,9.20
2018-11-03T18:00:39.669Z,9.20
2018-11-03T18:03:07.995Z,9.20
2018-11-03T18:05:36.390Z,9.20
2018-11-03T18:08:04.992Z,9.20
2018-11-03T18:10:33.362Z,9.20
2018-11-03T18:13:01.769Z,9.20
2018-11-03T18:15:30.085Z,9.20
2018-11-03T18:17:58.407Z,9.20
2018-11-03T18:20:26.777Z,9.30
2018-11-03T18:22:55.089Z,9.30
2018-11-03T18:25:23.447Z,9.30
2018-11-03T18:27:51.791Z,9.30
2018-11-03T18:30:20.171Z,9.40
2018-11-03T18:32:48.501Z,9.40
2018-11-03T18:35:16.861Z,9.40
2018-11-03T18:37:45.203Z,9.40
2018-11-03T18:40:13.590Z,9.40
2018-11-03T18:42:41.921Z,9.40
2018-11-03T18:45:10.271Z,9.40
2018-11-03T18:47:38.612Z,9.50
2018-11-03T18:50:09.541Z,9.40
2018-11-03T18:52:37.868Z,9.40
2018-11-03T18:55:07.029Z,9.40
2018-11-03T18:57:35.379Z,9.40
2018-11-03T19:00:03.857Z,9.40
2018-11-03T19:02:32.292Z,9.50
2018-11-03T19:05:00.572Z,9.40
2018-11-03T19:07:29.007Z,9.40
2018-11-03T19:09:57.355Z,9.50
2018-11-03T19:12:25.949Z,9.50
2018-11-03T19:14:54.279Z,9.50
2018-11-03T19:17:22.667Z,9.50
2018-11-03T19:19:51.017Z,9.50
2018-11-03T19:22:19.378Z,9.50
2018-11-03T19:24:47.697Z,9.50
2018-11-03T19:27:16.073Z,9.50
2018-11-03T19:29:44.397Z,9.50
2018-11-03T19:32:12.808Z,9.50
2018-11-03T19:34:41.084Z,9.50
2018-11-03T19:37:09.442Z,9.50
2018-11-03T19:39:37.764Z,9.50
2018-11-03T19:42:06.130Z,9.50
2018-11-03T19:44:34.456Z,9.50
2018-11-03T19:47:02.804Z,9.40
2018-11-03T19:49:31.132Z,9.40
2018-11-03T19:51:59.491Z,9.40
2018-11-03T19:54:27.815Z,9.40
2018-11-03T19:56:56.171Z,9.40
2018-11-03T19:59:24.509Z,9.40
2018-11-03T20:01:52.880Z,9.40
2018-11-03T20:04:21.233Z,9.30
2018-11-03T20:06:49.636Z,9.30
2018-11-03T20:09:17.957Z,9.30
2018-11-03T20:11:46.355Z,9.30
2018-11-03T20:14:14.683Z,9.30
2018-11-03T20:16:43.045Z,9.30
2018-11-03T20:19:11.367Z,9.30
2018-11-03T20:21:39.727Z,9.30
2018-11-03T20:24:08.088Z,9.30
2018-11-03T20:26:36.552Z,9.30
2018-11-03T20:29:04.922Z,9.20
2018-11-03T20:31:33.771Z,9.20
2018-11-03T20:34:02.093Z,9.30
2018-11-03T20:36:30.462Z,9.30
2018-11-03T20:38:58.784Z,9.20
2018-11-03T20:41:27.141Z,9.20
2018-11-03T20:43:55.477Z,9.20
2018-11-03T20:46:23.952Z,9.20
2018-11-03T20:48:52.296Z,9.20
2018-11-03T20:51:20.653Z,9.20
2018-11-03T20:53:49.021Z,9.20
2018-11-03T20:56:17.365Z,9.20
2018-11-03T20:58:45.680Z,9.20
2018-11-03T21:01:14.003Z,9.20
2018-11-03T21:03:42.352Z,9.20
2018-11-03T21:06:10.722Z,9.20
2018-11-03T21:08:39.092Z,9.20
2018-11-03T21:11:07.424Z,9.20
2018-11-03T21:13:35.784Z,9.20
2018-11-03T21:16:04.115Z,9.20
2018-11-03T21:18:32.524Z,9.20
2018-11-03T21:23:55.999Z,9.20
2018-11-03T21:26:24.344Z,9.20
2018-11-03T21:28:52.715Z,9.20
2018-11-03T21:31:21.036Z,9.20
2018-11-03T21:33:49.392Z,9.20
2018-11-03T21:36:17.820Z,9.20
2018-11-03T21:38:46.310Z,9.20
2018-11-03T21:41:14.620Z,9.20
2018-11-03T21:43:43.274Z,9.20
2018-11-03T21:46:11.627Z,9.20
2018-11-03T21:48:39.972Z,9.20
2018-11-03T21:51:08.293Z,9.20
2018-11-03T21:53:36.663Z,9.20
2018-11-03T21:56:05.719Z,9.20
2018-11-03T21:58:34.063Z,9.20
2018-11-03T22:01:02.392Z,9.20
2018-11-03T22:03:30.739Z,9.20
2018-11-03T22:05:59.088Z,9.20
2018-11-03T22:08:27.453Z,9.20
2018-11-03T22:10:55.780Z,9.20
2018-11-03T22:13:24.136Z,9.20
2018-11-03T22:15:52.551Z,9.20
2018-11-03T22:18:20.844Z,9.20
2018-11-03T22:20:49.171Z,9.20
2018-11-03T22:23:17.524Z,9.20
2018-11-03T22:25:45.851Z,9.20
2018-11-03T22:28:14.233Z,9.20
2018-11-03T22:30:42.643Z,9.20
2018-11-03T22:33:10.999Z,9.20
2018-11-03T22:35:39.361Z,9.20
2018-11-03T22:38:07.720Z,9.20
2018-11-03T22:40:36.044Z,9.20
2018-11-03T22:43:04.440Z,9.20
2018-11-03T22:45:32.781Z,9.20
2018-11-03T22:48:01.257Z,9.20
2018-11-03T22:50:29.605Z,9.20
2018-11-03T22:52:57.955Z,9.20
2018-11-03T22:55:26.280Z,9.20
2018-11-03T22:57:54.628Z,9.20
2018-11-03T23:00:22.948Z,9.20
2018-11-03T23:02:51.303Z,9.20
2018-11-03T23:05:19.661Z,9.20
2018-11-03T23:07:48.024Z,9.20
2018-11-03T23:10:16.369Z,9.20
2018-11-03T23:12:44.807Z,9.20
2018-11-03T23:15:13.087Z,9.20
2018-11-03T23:17:41.440Z,9.20
2018-11-03T23:20:11.870Z,9.20
2018-11-03T23:22:40.497Z,9.20
2018-11-03T23:25:09.693Z,9.20
2018-11-03T23:27:38.063Z,9.20
2018-11-03T23:30:08.896Z,9.20
2018-11-03T23:32:37.101Z,9.20
2018-11-03T23:35:07.044Z,9.20
2018-11-03T23:37:35.368Z,9.20
2018-11-03T23:40:03.760Z,9.20
2018-11-03T23:42:32.082Z,9.20
2018-11-03T23:45:00.505Z,9.20
2018-11-03T23:47:28.792Z,9.20
2018-11-03T23:49:57.144Z,9.20
2018-11-03T23:52:30.846Z,9.20
2018-11-03T23:54:59.284Z,9.20
2018-11-03T23:57:27.724Z,9.20
2018-11-03T23:59:56.141Z,9.20
